Terminal Aerodrome Forecast
Issued by NWS Binghamton, NY

Home | Current Version | Previous Version | Text Only | Print | Product List | Glossary On
Versions: 1 2 3 4 5 6 7 8 9 10 11 12 13 14
903
FTUS41 KBGM 241720
TAFAVP
TAF
KAVP 241720Z 2418/2518 11006KT P6SM BKN200
     FM250400 10010G20KT P6SM OVC050
     FM250700 09011G23KT P6SM OVC050 WS020/11035KT
     FM251000 10012G25KT P6SM -RA OVC035 WS020/11035KT
     FM251600 08013G25KT 4SM -RA BR OVC025=

USA.gov is the U.S. government's official web portal to all federal, state and local government web resources and services.